sensor_id;sensor_type;location;lat;lon;timestamp;temperature;humidity
24011;DHT22;12217;50.792;4.372;2023-04-30T00:01:52;12.80;99.90
24011;DHT22;12217;50.792;4.372;2023-04-30T00:04:18;12.80;99.90
24011;DHT22;12217;50.792;4.372;2023-04-30T00:06:44;12.80;99.90
24011;DHT22;12217;50.792;4.372;2023-04-30T00:09:09;12.80;99.90
24011;DHT22;12217;50.792;4.372;2023-04-30T00:11:35;12.70;99.90
24011;DHT22;12217;50.792;4.372;2023-04-30T00:14:01;12.70;99.90
24011;DHT22;12217;50.792;4.372;2023-04-30T00:16:26;12.70;99.90
24011;DHT22;12217;50.792;4.372;2023-04-30T00:18:52;12.60;99.90
24011;DHT22;12217;50.792;4.372;2023-04-30T00:21:17;12.60;99.90
24011;DHT22;12217;50.792;4.372;2023-04-30T00:23:43;12.60;99.90
24011;DHT22;12217;50.792;4.372;2023-04-30T00:26:09;12.60;99.90
24011;DHT22;12217;50.792;4.372;2023-04-30T00:28:34;12.50;99.90
24011;DHT22;12217;50.792;4.372;2023-04-30T00:31:00;12.50;99.90
24011;DHT22;12217;50.792;4.372;2023-04-30T00:33:26;12.50;99.90
24011;DHT22;12217;50.792;4.372;2023-04-30T00:35:51;12.50;99.90
24011;DHT22;12217;50.792;4.372;2023-04-30T00:38:17;12.50;99.90
24011;DHT22;12217;50.792;4.372;2023-04-30T00:40:42;12.40;99.90
24011;DHT22;12217;50.792;4.372;2023-04-30T00:43:08;12.50;99.90
24011;DHT22;12217;50.792;4.372;2023-04-30T00:45:34;12.40;99.90
24011;DHT22;12217;50.792;4.372;2023-04-30T00:48:00;12.40;99.90
24011;DHT22;12217;50.792;4.372;2023-04-30T00:50:25;12.30;99.90
24011;DHT22;12217;50.792;4.372;2023-04-30T00:52:51;12.40;99.90
24011;DHT22;12217;50.792;4.372;2023-04-30T00:55:17;12.30;99.90
24011;DHT22;12217;50.792;4.372;2023-04-30T00:57:43;12.30;99.90
24011;DHT22;12217;50.792;4.372;2023-04-30T01:00:09;12.30;99.90
24011;DHT22;12217;50.792;4.372;2023-04-30T01:02:35;12.30;99.90
24011;DHT22;12217;50.792;4.372;2023-04-30T01:05:02;12.40;99.90
24011;DHT22;12217;50.792;4.372;2023-04-30T01:07:29;12.30;99.90
24011;DHT22;12217;50.792;4.372;2023-04-30T01:09:55;12.20;99.90
24011;DHT22;12217;50.792;4.372;2023-04-30T01:12:28;12.20;99.90
24011;DHT22;12217;50.792;4.372;2023-04-30T01:15:33;12.20;99.90
24011;DHT22;12217;50.792;4.372;2023-04-30T01:20:43;12.00;99.90
24011;DHT22;12217;50.792;4.372;2023-04-30T01:28:42;12.00;99.90
24011;DHT22;12217;50.792;4.372;2023-04-30T01:31:13;12.00;99.90
24011;DHT22;12217;50.792;4.372;2023-04-30T01:33:39;12.00;99.90
24011;DHT22;12217;50.792;4.372;2023-04-30T01:39:12;12.00;99.90
24011;DHT22;12217;50.792;4.372;2023-04-30T01:44:28;12.00;99.90
24011;DHT22;12217;50.792;4.372;2023-04-30T01:55:13;11.90;99.90
24011;DHT22;12217;50.792;4.372;2023-04-30T02:00:19;12.00;99.90
24011;DHT22;12217;50.792;4.372;2023-04-30T02:02:45;12.00;99.90
24011;DHT22;12217;50.792;4.372;2023-04-30T02:05:11;11.90;99.90
24011;DHT22;12217;50.792;4.372;2023-04-30T02:07:44;11.80;99.90
24011;DHT22;12217;50.792;4.372;2023-04-30T02:10:11;11.70;99.90
24011;DHT22;12217;50.792;4.372;2023-04-30T02:12:37;11.70;99.90
24011;DHT22;12217;50.792;4.372;2023-04-30T02:15:04;11.60;99.90
24011;DHT22;12217;50.792;4.372;2023-04-30T02:17:30;11.50;99.90
24011;DHT22;12217;50.792;4.372;2023-04-30T02:19:57;11.50;99.90
24011;DHT22;12217;50.792;4.372;2023-04-30T02:22:22;11.40;99.90
24011;DHT22;12217;50.792;4.372;2023-04-30T02:24:48;11.40;99.90
24011;DHT22;12217;50.792;4.372;2023-04-30T02:27:14;11.40;99.90
24011;DHT22;12217;50.792;4.372;2023-04-30T02:29:41;11.40;99.90
24011;DHT22;12217;50.792;4.372;2023-04-30T02:32:06;11.40;99.90
24011;DHT22;12217;50.792;4.372;2023-04-30T02:34:33;11.30;99.90
24011;DHT22;12217;50.792;4.372;2023-04-30T02:36:58;11.40;99.90
24011;DHT22;12217;50.792;4.372;2023-04-30T02:39:24;11.50;99.90
24011;DHT22;12217;50.792;4.372;2023-04-30T02:41:50;11.50;99.90
24011;DHT22;12217;50.792;4.372;2023-04-30T02:44:16;11.40;99.90
24011;DHT22;12217;50.792;4.372;2023-04-30T02:46:41;11.40;99.90
24011;DHT22;12217;50.792;4.372;2023-04-30T02:49:07;11.40;99.90
24011;DHT22;12217;50.792;4.372;2023-04-30T02:51:32;11.30;99.90
24011;DHT22;12217;50.792;4.372;2023-04-30T02:53:58;11.30;99.90
24011;DHT22;12217;50.792;4.372;2023-04-30T02:56:24;11.30;99.90
24011;DHT22;12217;50.792;4.372;2023-04-30T02:58:49;11.30;99.90
24011;DHT22;12217;50.792;4.372;2023-04-30T03:01:15;11.30;99.90
24011;DHT22;12217;50.792;4.372;2023-04-30T03:03:41;11.30;99.90
24011;DHT22;12217;50.792;4.372;2023-04-30T03:06:06;11.30;99.90
24011;DHT22;12217;50.792;4.372;2023-04-30T03:08:32;11.30;99.90
24011;DHT22;12217;50.792;4.372;2023-04-30T03:10:57;11.30;99.90
24011;DHT22;12217;50.792;4.372;2023-04-30T03:13:23;11.20;99.90
24011;DHT22;12217;50.792;4.372;2023-04-30T03:15:56;11.10;99.90
24011;DHT22;12217;50.792;4.372;2023-04-30T03:18:22;11.10;99.90
24011;DHT22;12217;50.792;4.372;2023-04-30T03:20:48;11.10;99.90
24011;DHT22;12217;50.792;4.372;2023-04-30T03:23:14;11.10;99.90
24011;DHT22;12217;50.792;4.372;2023-04-30T03:25:39;11.10;99.90
24011;DHT22;12217;50.792;4.372;2023-04-30T03:28:05;11.10;99.90
24011;DHT22;12217;50.792;4.372;2023-04-30T03:30:31;11.10;99.90
24011;DHT22;12217;50.792;4.372;2023-04-30T03:32:56;11.00;99.90
24011;DHT22;12217;50.792;4.372;2023-04-30T03:35:22;11.10;99.90
24011;DHT22;12217;50.792;4.372;2023-04-30T03:37:48;11.00;99.90
24011;DHT22;12217;50.792;4.372;2023-04-30T03:40:13;11.10;99.90
24011;DHT22;12217;50.792;4.372;2023-04-30T03:42:39;11.00;99.90
24011;DHT22;12217;50.792;4.372;2023-04-30T03:45:05;11.10;99.90
24011;DHT22;12217;50.792;4.372;2023-04-30T03:47:31;11.00;99.90
24011;DHT22;12217;50.792;4.372;2023-04-30T03:49:57;11.00;99.90
24011;DHT22;12217;50.792;4.372;2023-04-30T03:52:23;10.90;99.90
24011;DHT22;12217;50.792;4.372;2023-04-30T03:54:48;10.90;99.90
24011;DHT22;12217;50.792;4.372;2023-04-30T03:57:14;10.90;99.90
24011;DHT22;12217;50.792;4.372;2023-04-30T03:59:40;10.90;99.90
24011;DHT22;12217;50.792;4.372;2023-04-30T04:02:06;10.90;99.90
24011;DHT22;12217;50.792;4.372;2023-04-30T04:04:32;10.70;99.90
24011;DHT22;12217;50.792;4.372;2023-04-30T04:06:58;10.70;99.90
24011;DHT22;12217;50.792;4.372;2023-04-30T04:09:24;10.70;99.90
24011;DHT22;12217;50.792;4.372;2023-04-30T04:11:49;10.80;99.90
24011;DHT22;12217;50.792;4.372;2023-04-30T04:14:15;10.80;99.90
24011;DHT22;12217;50.792;4.372;2023-04-30T04:16:41;10.80;99.90
24011;DHT22;12217;50.792;4.372;2023-04-30T04:19:07;10.80;99.90
24011;DHT22;12217;50.792;4.372;2023-04-30T04:21:33;10.70;99.90
24011;DHT22;12217;50.792;4.372;2023-04-30T04:23:59;10.70;99.90
24011;DHT22;12217;50.792;4.372;2023-04-30T04:26:27;10.70;99.90
24011;DHT22;12217;50.792;4.372;2023-04-30T04:28:53;10.70;99.90
24011;DHT22;12217;50.792;4.372;2023-04-30T04:31:18;10.70;99.90
24011;DHT22;12217;50.792;4.372;2023-04-30T04:33:44;10.80;99.90
24011;DHT22;12217;50.792;4.372;2023-04-30T04:36:11;10.70;99.90
24011;DHT22;12217;50.792;4.372;2023-04-30T04:38:36;10.70;99.90
24011;DHT22;12217;50.792;4.372;2023-04-30T04:41:02;10.70;99.90
24011;DHT22;12217;50.792;4.372;2023-04-30T04:43:28;10.80;99.90
24011;DHT22;12217;50.792;4.372;2023-04-30T04:45:53;10.70;99.90
24011;DHT22;12217;50.792;4.372;2023-04-30T04:48:19;10.80;99.90
24011;DHT22;12217;50.792;4.372;2023-04-30T04:50:45;10.70;99.90
24011;DHT22;12217;50.792;4.372;2023-04-30T04:53:10;10.70;99.90
24011;DHT22;12217;50.792;4.372;2023-04-30T04:55:36;10.70;99.90
24011;DHT22;12217;50.792;4.372;2023-04-30T04:58:01;10.70;99.90
24011;DHT22;12217;50.792;4.372;2023-04-30T05:00:27;10.70;99.90
24011;DHT22;12217;50.792;4.372;2023-04-30T05:02:54;10.70;99.90
24011;DHT22;12217;50.792;4.372;2023-04-30T05:05:19;10.70;99.90
24011;DHT22;12217;50.792;4.372;2023-04-30T05:07:45;10.80;99.90
24011;DHT22;12217;50.792;4.372;2023-04-30T05:10:11;10.80;99.90
24011;DHT22;12217;50.792;4.372;2023-04-30T05:12:36;10.80;99.90
24011;DHT22;12217;50.792;4.372;2023-04-30T05:15:02;10.80;99.90
24011;DHT22;12217;50.792;4.372;2023-04-30T05:17:28;10.80;99.90
24011;DHT22;12217;50.792;4.372;2023-04-30T05:19:54;10.80;99.90
24011;DHT22;12217;50.792;4.372;2023-04-30T05:22:20;10.80;99.90
24011;DHT22;12217;50.792;4.372;2023-04-30T05:24:46;10.90;99.90
24011;DHT22;12217;50.792;4.372;2023-04-30T05:27:11;10.90;99.90
24011;DHT22;12217;50.792;4.372;2023-04-30T05:29:37;10.90;99.90
24011;DHT22;12217;50.792;4.372;2023-04-30T05:32:02;11.00;99.90
24011;DHT22;12217;50.792;4.372;2023-04-30T05:34:28;11.00;99.90
24011;DHT22;12217;50.792;4.372;2023-04-30T05:36:54;11.10;99.90
24011;DHT22;12217;50.792;4.372;2023-04-30T05:39:20;11.00;99.90
24011;DHT22;12217;50.792;4.372;2023-04-30T05:41:45;11.00;99.90
24011;DHT22;12217;50.792;4.372;2023-04-30T05:44:11;11.10;99.90
24011;DHT22;12217;50.792;4.372;2023-04-30T05:46:36;11.10;99.90
24011;DHT22;12217;50.792;4.372;2023-04-30T05:49:02;11.20;99.90
24011;DHT22;12217;50.792;4.372;2023-04-30T05:51:28;11.20;99.90
24011;DHT22;12217;50.792;4.372;2023-04-30T05:53:53;11.20;99.90
24011;DHT22;12217;50.792;4.372;2023-04-30T05:56:19;11.20;99.90
24011;DHT22;12217;50.792;4.372;2023-04-30T05:58:48;11.20;99.90
24011;DHT22;12217;50.792;4.372;2023-04-30T06:01:15;11.20;99.90
24011;DHT22;12217;50.792;4.372;2023-04-30T06:03:41;11.30;99.90
24011;DHT22;12217;50.792;4.372;2023-04-30T06:06:07;11.30;99.90
24011;DHT22;12217;50.792;4.372;2023-04-30T06:08:33;11.40;99.90
24011;DHT22;12217;50.792;4.372;2023-04-30T06:10:58;11.50;99.90
24011;DHT22;12217;50.792;4.372;2023-04-30T06:13:25;11.60;99.90
24011;DHT22;12217;50.792;4.372;2023-04-30T06:15:50;11.80;99.90
24011;DHT22;12217;50.792;4.372;2023-04-30T06:18:16;11.90;99.90
24011;DHT22;12217;50.792;4.372;2023-04-30T06:20:45;11.90;99.90
24011;DHT22;12217;50.792;4.372;2023-04-30T06:23:10;12.00;99.90
24011;DHT22;12217;50.792;4.372;2023-04-30T06:25:36;12.00;99.90
24011;DHT22;12217;50.792;4.372;2023-04-30T06:28:03;12.20;99.90
24011;DHT22;12217;50.792;4.372;2023-04-30T06:30:30;12.20;99.90
24011;DHT22;12217;50.792;4.372;2023-04-30T06:32:56;12.30;99.90
24011;DHT22;12217;50.792;4.372;2023-04-30T06:35:22;12.40;99.90
24011;DHT22;12217;50.792;4.372;2023-04-30T06:37:47;12.50;99.90
24011;DHT22;12217;50.792;4.372;2023-04-30T06:40:13;12.50;99.90
24011;DHT22;12217;50.792;4.372;2023-04-30T06:42:42;12.60;99.90
24011;DHT22;12217;50.792;4.372;2023-04-30T06:45:08;12.60;99.90
24011;DHT22;12217;50.792;4.372;2023-04-30T06:47:35;12.70;99.90
24011;DHT22;12217;50.792;4.372;2023-04-30T06:50:02;12.70;99.90
24011;DHT22;12217;50.792;4.372;2023-04-30T06:52:29;12.80;99.90
24011;DHT22;12217;50.792;4.372;2023-04-30T06:54:55;12.90;99.90
24011;DHT22;12217;50.792;4.372;2023-04-30T06:57:21;13.00;99.90
24011;DHT22;12217;50.792;4.372;2023-04-30T06:59:47;13.00;99.90
24011;DHT22;12217;50.792;4.372;2023-04-30T07:02:12;13.20;99.90
24011;DHT22;12217;50.792;4.372;2023-04-30T07:04:38;13.20;99.90
24011;DHT22;12217;50.792;4.372;2023-04-30T07:07:04;13.30;99.90
24011;DHT22;12217;50.792;4.372;2023-04-30T07:09:29;13.40;99.90
24011;DHT22;12217;50.792;4.372;2023-04-30T07:11:56;13.50;99.90
24011;DHT22;12217;50.792;4.372;2023-04-30T07:14:23;13.60;99.90
24011;DHT22;12217;50.792;4.372;2023-04-30T07:16:49;13.70;99.90
24011;DHT22;12217;50.792;4.372;2023-04-30T07:19:15;13.70;99.90
24011;DHT22;12217;50.792;4.372;2023-04-30T07:21:41;13.70;99.90
24011;DHT22;12217;50.792;4.372;2023-04-30T07:24:06;13.80;99.90
24011;DHT22;12217;50.792;4.372;2023-04-30T07:26:32;14.00;99.90
24011;DHT22;12217;50.792;4.372;2023-04-30T07:28:58;14.10;99.90
24011;DHT22;12217;50.792;4.372;2023-04-30T07:31:23;14.20;99.90
24011;DHT22;12217;50.792;4.372;2023-04-30T07:33:50;14.30;99.90
24011;DHT22;12217;50.792;4.372;2023-04-30T07:36:19;14.30;99.90
24011;DHT22;12217;50.792;4.372;2023-04-30T07:38:45;14.40;99.90
24011;DHT22;12217;50.792;4.372;2023-04-30T07:41:11;14.50;99.90
24011;DHT22;12217;50.792;4.372;2023-04-30T07:43:37;14.70;99.90
24011;DHT22;12217;50.792;4.372;2023-04-30T07:46:04;14.80;99.90
24011;DHT22;12217;50.792;4.372;2023-04-30T07:48:29;14.90;99.90
24011;DHT22;12217;50.792;4.372;2023-04-30T07:50:55;15.00;99.90
24011;DHT22;12217;50.792;4.372;2023-04-30T07:53:22;15.10;99.90
24011;DHT22;12217;50.792;4.372;2023-04-30T07:55:52;15.10;99.90
24011;DHT22;12217;50.792;4.372;2023-04-30T07:58:38;15.20;99.90
24011;DHT22;12217;50.792;4.372;2023-04-30T08:01:09;15.30;99.90
24011;DHT22;12217;50.792;4.372;2023-04-30T08:03:34;15.40;99.90
24011;DHT22;12217;50.792;4.372;2023-04-30T08:06:01;15.50;99.90
24011;DHT22;12217;50.792;4.372;2023-04-30T08:08:44;15.60;99.90
24011;DHT22;12217;50.792;4.372;2023-04-30T08:11:10;15.60;99.90
24011;DHT22;12217;50.792;4.372;2023-04-30T08:13:36;15.80;99.90
24011;DHT22;12217;50.792;4.372;2023-04-30T08:16:02;16.00;99.90
24011;DHT22;12217;50.792;4.372;2023-04-30T08:18:28;16.00;99.90
24011;DHT22;12217;50.792;4.372;2023-04-30T08:20:54;16.20;99.90
24011;DHT22;12217;50.792;4.372;2023-04-30T08:23:20;16.30;99.90
24011;DHT22;12217;50.792;4.372;2023-04-30T08:25:46;16.40;99.90
24011;DHT22;12217;50.792;4.372;2023-04-30T08:28:11;16.40;99.90
24011;DHT22;12217;50.792;4.372;2023-04-30T08:30:38;16.60;99.90
24011;DHT22;12217;50.792;4.372;2023-04-30T08:33:04;16.80;99.90
24011;DHT22;12217;50.792;4.372;2023-04-30T08:35:29;16.80;99.90
24011;DHT22;12217;50.792;4.372;2023-04-30T08:37:55;16.90;99.90
24011;DHT22;12217;50.792;4.372;2023-04-30T08:40:21;17.20;99.90
24011;DHT22;12217;50.792;4.372;2023-04-30T08:42:56;17.30;99.90
24011;DHT22;12217;50.792;4.372;2023-04-30T08:45:25;17.30;99.90
24011;DHT22;12217;50.792;4.372;2023-04-30T08:47:51;17.40;99.90
24011;DHT22;12217;50.792;4.372;2023-04-30T08:50:17;17.40;99.90
24011;DHT22;12217;50.792;4.372;2023-04-30T08:52:43;17.40;99.90
24011;DHT22;12217;50.792;4.372;2023-04-30T08:55:09;17.40;99.90
24011;DHT22;12217;50.792;4.372;2023-04-30T08:57:35;17.40;99.90
24011;DHT22;12217;50.792;4.372;2023-04-30T09:00:02;17.60;99.90
24011;DHT22;12217;50.792;4.372;2023-04-30T09:02:31;17.50;99.90
24011;DHT22;12217;50.792;4.372;2023-04-30T09:04:57;17.60;99.90
24011;DHT22;12217;50.792;4.372;2023-04-30T09:07:23;17.60;99.90
24011;DHT22;12217;50.792;4.372;2023-04-30T09:09:52;17.70;99.90
24011;DHT22;12217;50.792;4.372;2023-04-30T09:12:18;17.70;99.90
24011;DHT22;12217;50.792;4.372;2023-04-30T09:17:24;17.90;99.90
24011;DHT22;12217;50.792;4.372;2023-04-30T09:19:51;18.00;99.90
24011;DHT22;12217;50.792;4.372;2023-04-30T09:22:20;18.00;99.90
24011;DHT22;12217;50.792;4.372;2023-04-30T09:24:48;18.10;99.90
24011;DHT22;12217;50.792;4.372;2023-04-30T09:27:19;18.20;99.90
24011;DHT22;12217;50.792;4.372;2023-04-30T09:29:45;18.30;99.90
24011;DHT22;12217;50.792;4.372;2023-04-30T09:32:11;18.50;99.90
24011;DHT22;12217;50.792;4.372;2023-04-30T09:34:38;18.40;99.90
24011;DHT22;12217;50.792;4.372;2023-04-30T09:37:04;18.60;99.90
24011;DHT22;12217;50.792;4.372;2023-04-30T09:39:29;18.70;99.90
24011;DHT22;12217;50.792;4.372;2023-04-30T09:42:09;18.90;99.90
24011;DHT22;12217;50.792;4.372;2023-04-30T09:44:41;19.00;99.90
24011;DHT22;12217;50.792;4.372;2023-04-30T09:47:15;19.20;99.90
24011;DHT22;12217;50.792;4.372;2023-04-30T09:50:10;19.30;99.90
24011;DHT22;12217;50.792;4.372;2023-04-30T09:53:05;19.40;99.90
24011;DHT22;12217;50.792;4.372;2023-04-30T09:55:32;19.20;99.90
24011;DHT22;12217;50.792;4.372;2023-04-30T09:58:17;19.30;99.90
24011;DHT22;12217;50.792;4.372;2023-04-30T10:00:44;19.20;99.90
24011;DHT22;12217;50.792;4.372;2023-04-30T10:03:12;19.20;99.90
24011;DHT22;12217;50.792;4.372;2023-04-30T10:05:45;19.30;99.90
24011;DHT22;12217;50.792;4.372;2023-04-30T10:08:24;19.30;99.90
24011;DHT22;12217;50.792;4.372;2023-04-30T10:10:57;19.30;99.90
24011;DHT22;12217;50.792;4.372;2023-04-30T10:13:25;19.20;99.90
24011;DHT22;12217;50.792;4.372;2023-04-30T10:15:57;19.30;99.90
24011;DHT22;12217;50.792;4.372;2023-04-30T10:18:30;19.50;99.90
24011;DHT22;12217;50.792;4.372;2023-04-30T10:21:02;19.60;99.90
24011;DHT22;12217;50.792;4.372;2023-04-30T10:23:36;20.00;99.90
24011;DHT22;12217;50.792;4.372;2023-04-30T10:26:02;20.10;99.90
24011;DHT22;12217;50.792;4.372;2023-04-30T10:28:29;20.30;99.90
24011;DHT22;12217;50.792;4.372;2023-04-30T10:30:56;20.40;99.90
24011;DHT22;12217;50.792;4.372;2023-04-30T10:33:27;20.40;99.90
24011;DHT22;12217;50.792;4.372;2023-04-30T10:35:59;20.40;99.90
24011;DHT22;12217;50.792;4.372;2023-04-30T10:38:29;20.60;99.90
24011;DHT22;12217;50.792;4.372;2023-04-30T10:40:56;20.80;99.90
24011;DHT22;12217;50.792;4.372;2023-04-30T10:43:24;20.80;99.90
24011;DHT22;12217;50.792;4.372;2023-04-30T10:45:50;20.70;99.90
24011;DHT22;12217;50.792;4.372;2023-04-30T10:48:16;20.80;99.90
24011;DHT22;12217;50.792;4.372;2023-04-30T10:50:51;21.00;99.90
24011;DHT22;12217;50.792;4.372;2023-04-30T10:53:18;21.40;99.90
24011;DHT22;12217;50.792;4.372;2023-04-30T10:55:53;21.70;99.60
24011;DHT22;12217;50.792;4.372;2023-04-30T11:01:10;21.30;97.90
24011;DHT22;12217;50.792;4.372;2023-04-30T11:03:38;21.10;97.90
24011;DHT22;12217;50.792;4.372;2023-04-30T11:06:14;21.10;97.70
24011;DHT22;12217;50.792;4.372;2023-04-30T11:08:44;21.30;95.20
24011;DHT22;12217;50.792;4.372;2023-04-30T11:11:11;21.20;96.60
24011;DHT22;12217;50.792;4.372;2023-04-30T11:13:45;21.00;94.60
24011;DHT22;12217;50.792;4.372;2023-04-30T11:16:11;20.90;96.90
24011;DHT22;12217;50.792;4.372;2023-04-30T11:18:44;21.10;97.00
24011;DHT22;12217;50.792;4.372;2023-04-30T11:21:10;21.40;97.70
24011;DHT22;12217;50.792;4.372;2023-04-30T11:23:41;21.60;97.60
24011;DHT22;12217;50.792;4.372;2023-04-30T11:26:08;21.90;95.40
24011;DHT22;12217;50.792;4.372;2023-04-30T11:28:36;22.10;93.00
24011;DHT22;12217;50.792;4.372;2023-04-30T11:31:03;22.30;94.50
24011;DHT22;12217;50.792;4.372;2023-04-30T11:33:30;22.60;91.50
24011;DHT22;12217;50.792;4.372;2023-04-30T11:35:57;22.70;88.40
24011;DHT22;12217;50.792;4.372;2023-04-30T11:38:28;22.80;90.90
24011;DHT22;12217;50.792;4.372;2023-04-30T11:40:55;22.80;91.30
24011;DHT22;12217;50.792;4.372;2023-04-30T11:43:22;22.80;91.40
24011;DHT22;12217;50.792;4.372;2023-04-30T11:46:05;23.00;92.60
24011;DHT22;12217;50.792;4.372;2023-04-30T11:48:32;23.20;90.40
24011;DHT22;12217;50.792;4.372;2023-04-30T11:50:58;23.40;89.80
24011;DHT22;12217;50.792;4.372;2023-04-30T11:53:27;23.30;88.30
24011;DHT22;12217;50.792;4.372;2023-04-30T11:55:54;23.40;86.90
24011;DHT22;12217;50.792;4.372;2023-04-30T11:58:20;23.30;84.90
24011;DHT22;12217;50.792;4.372;2023-04-30T12:00:46;23.30;86.70
24011;DHT22;12217;50.792;4.372;2023-04-30T12:03:18;23.20;87.90
24011;DHT22;12217;50.792;4.372;2023-04-30T12:05:48;23.20;86.40
24011;DHT22;12217;50.792;4.372;2023-04-30T12:08:14;23.20;85.70
24011;DHT22;12217;50.792;4.372;2023-04-30T12:10:43;23.40;82.80
24011;DHT22;12217;50.792;4.372;2023-04-30T12:13:12;23.50;83.20
24011;DHT22;12217;50.792;4.372;2023-04-30T12:15:38;23.60;83.80
24011;DHT22;12217;50.792;4.372;2023-04-30T12:18:13;23.80;84.90
24011;DHT22;12217;50.792;4.372;2023-04-30T12:20:40;23.90;83.00
24011;DHT22;12217;50.792;4.372;2023-04-30T12:23:07;24.20;82.60
24011;DHT22;12217;50.792;4.372;2023-04-30T12:25:40;24.20;80.60
24011;DHT22;12217;50.792;4.372;2023-04-30T12:28:07;24.30;76.60
24011;DHT22;12217;50.792;4.372;2023-04-30T12:30:32;24.50;78.00
24011;DHT22;12217;50.792;4.372;2023-04-30T12:32:59;24.70;81.70
24011;DHT22;12217;50.792;4.372;2023-04-30T12:35:27;24.90;76.80
24011;DHT22;12217;50.792;4.372;2023-04-30T12:38:04;25.10;74.30
24011;DHT22;12217;50.792;4.372;2023-04-30T12:40:31;24.90;70.50
24011;DHT22;12217;50.792;4.372;2023-04-30T12:43:04;24.90;68.80
24011;DHT22;12217;50.792;4.372;2023-04-30T12:45:48;24.60;70.00
24011;DHT22;12217;50.792;4.372;2023-04-30T12:48:18;23.90;70.80
24011;DHT22;12217;50.792;4.372;2023-04-30T12:50:58;23.80;71.30
24011;DHT22;12217;50.792;4.372;2023-04-30T12:53:24;23.80;74.60
24011;DHT22;12217;50.792;4.372;2023-04-30T12:56:10;23.90;74.10
24011;DHT22;12217;50.792;4.372;2023-04-30T12:58:40;24.10;75.00
24011;DHT22;12217;50.792;4.372;2023-04-30T13:01:10;24.10;74.10
24011;DHT22;12217;50.792;4.372;2023-04-30T13:03:37;24.00;74.10
24011;DHT22;12217;50.792;4.372;2023-04-30T13:06:03;24.00;73.90
24011;DHT22;12217;50.792;4.372;2023-04-30T13:08:31;24.10;72.00
24011;DHT22;12217;50.792;4.372;2023-04-30T13:10:57;23.90;73.50
24011;DHT22;12217;50.792;4.372;2023-04-30T13:13:22;23.90;74.70
24011;DHT22;12217;50.792;4.372;2023-04-30T13:15:48;24.00;75.50
24011;DHT22;12217;50.792;4.372;2023-04-30T13:18:14;24.00;73.30
24011;DHT22;12217;50.792;4.372;2023-04-30T13:20:43;24.30;70.60
24011;DHT22;12217;50.792;4.372;2023-04-30T13:23:09;24.60;67.20
24011;DHT22;12217;50.792;4.372;2023-04-30T13:25:36;24.80;66.90
24011;DHT22;12217;50.792;4.372;2023-04-30T13:28:02;24.80;70.70
24011;DHT22;12217;50.792;4.372;2023-04-30T13:30:28;24.50;69.90
24011;DHT22;12217;50.792;4.372;2023-04-30T13:32:54;24.50;71.40
24011;DHT22;12217;50.792;4.372;2023-04-30T13:35:20;24.50;70.10
24011;DHT22;12217;50.792;4.372;2023-04-30T13:37:46;24.50;68.50
24011;DHT22;12217;50.792;4.372;2023-04-30T13:40:14;24.40;66.20
24011;DHT22;12217;50.792;4.372;2023-04-30T13:42:41;24.40;68.10
24011;DHT22;12217;50.792;4.372;2023-04-30T13:45:08;24.70;66.10
24011;DHT22;12217;50.792;4.372;2023-04-30T13:47:34;24.90;65.60
24011;DHT22;12217;50.792;4.372;2023-04-30T13:50:00;24.50;64.00
24011;DHT22;12217;50.792;4.372;2023-04-30T13:52:26;24.60;65.40
24011;DHT22;12217;50.792;4.372;2023-04-30T13:54:52;24.50;66.20
24011;DHT22;12217;50.792;4.372;2023-04-30T13:57:17;24.30;68.90
24011;DHT22;12217;50.792;4.372;2023-04-30T13:59:43;24.30;71.20
24011;DHT22;12217;50.792;4.372;2023-04-30T14:02:09;24.40;68.40
24011;DHT22;12217;50.792;4.372;2023-04-30T14:04:35;24.40;67.60
24011;DHT22;12217;50.792;4.372;2023-04-30T14:07:02;24.50;67.70
24011;DHT22;12217;50.792;4.372;2023-04-30T14:09:28;24.50;67.40
24011;DHT22;12217;50.792;4.372;2023-04-30T14:11:54;24.70;67.70
24011;DHT22;12217;50.792;4.372;2023-04-30T14:14:22;24.70;64.20
24011;DHT22;12217;50.792;4.372;2023-04-30T14:16:48;24.50;66.30
24011;DHT22;12217;50.792;4.372;2023-04-30T14:19:13;24.30;65.90
24011;DHT22;12217;50.792;4.372;2023-04-30T14:21:39;24.20;68.60
24011;DHT22;12217;50.792;4.372;2023-04-30T14:24:05;24.40;66.00
24011;DHT22;12217;50.792;4.372;2023-04-30T14:26:31;24.40;65.60
24011;DHT22;12217;50.792;4.372;2023-04-30T14:28:57;24.20;64.80
24011;DHT22;12217;50.792;4.372;2023-04-30T14:31:24;24.00;65.10
24011;DHT22;12217;50.792;4.372;2023-04-30T14:33:49;23.80;65.60
24011;DHT22;12217;50.792;4.372;2023-04-30T14:36:15;23.60;65.50
24011;DHT22;12217;50.792;4.372;2023-04-30T14:38:41;23.60;66.80
24011;DHT22;12217;50.792;4.372;2023-04-30T14:41:07;23.60;67.20
24011;DHT22;12217;50.792;4.372;2023-04-30T14:43:32;23.60;65.20
24011;DHT22;12217;50.792;4.372;2023-04-30T14:45:58;23.50;65.80
24011;DHT22;12217;50.792;4.372;2023-04-30T14:48:24;23.50;68.10
24011;DHT22;12217;50.792;4.372;2023-04-30T14:50:49;23.50;68.20
24011;DHT22;12217;50.792;4.372;2023-04-30T14:53:16;23.40;68.30
24011;DHT22;12217;50.792;4.372;2023-04-30T14:55:42;23.60;68.20
24011;DHT22;12217;50.792;4.372;2023-04-30T14:58:08;23.50;67.90
24011;DHT22;12217;50.792;4.372;2023-04-30T15:00:33;23.60;66.20
24011;DHT22;12217;50.792;4.372;2023-04-30T15:02:59;23.60;67.20
24011;DHT22;12217;50.792;4.372;2023-04-30T15:05:25;23.80;66.20
24011;DHT22;12217;50.792;4.372;2023-04-30T15:07:51;23.70;69.10
24011;DHT22;12217;50.792;4.372;2023-04-30T15:10:18;23.80;65.70
24011;DHT22;12217;50.792;4.372;2023-04-30T15:12:44;24.00;66.00
24011;DHT22;12217;50.792;4.372;2023-04-30T15:15:10;24.00;68.60
24011;DHT22;12217;50.792;4.372;2023-04-30T15:17:36;23.80;66.90
24011;DHT22;12217;50.792;4.372;2023-04-30T15:20:07;23.90;66.20
24011;DHT22;12217;50.792;4.372;2023-04-30T15:22:33;23.90;68.40
24011;DHT22;12217;50.792;4.372;2023-04-30T15:24:59;24.00;66.80
24011;DHT22;12217;50.792;4.372;2023-04-30T15:27:26;24.10;64.50
24011;DHT22;12217;50.792;4.372;2023-04-30T15:29:52;24.20;65.30
24011;DHT22;12217;50.792;4.372;2023-04-30T15:32:18;24.20;63.80
24011;DHT22;12217;50.792;4.372;2023-04-30T15:34:45;24.10;65.90
24011;DHT22;12217;50.792;4.372;2023-04-30T15:37:10;24.00;66.60
24011;DHT22;12217;50.792;4.372;2023-04-30T15:39:36;24.00;65.40
24011;DHT22;12217;50.792;4.372;2023-04-30T15:42:02;24.10;67.00
24011;DHT22;12217;50.792;4.372;2023-04-30T15:44:28;24.50;63.50
24011;DHT22;12217;50.792;4.372;2023-04-30T15:46:54;24.20;63.20
24011;DHT22;12217;50.792;4.372;2023-04-30T15:49:20;24.10;66.40
24011;DHT22;12217;50.792;4.372;2023-04-30T15:51:47;23.90;66.00
24011;DHT22;12217;50.792;4.372;2023-04-30T15:54:13;23.80;66.30
24011;DHT22;12217;50.792;4.372;2023-04-30T15:56:39;23.90;64.60
24011;DHT22;12217;50.792;4.372;2023-04-30T15:59:05;23.60;64.10
24011;DHT22;12217;50.792;4.372;2023-04-30T16:01:31;23.40;63.00